sensor_id;sensor_type;location;lat;lon;timestamp;pressure;altitude;pressure_sealevel;temperature;humidity
36234;BME280;43467;50.890;5.982;2023-11-21T00:00:48;99636.31;;;10.11;91.18
36234;BME280;43467;50.890;5.982;2023-11-21T00:03:14;99648.34;;;10.01;90.82
36234;BME280;43467;50.890;5.982;2023-11-21T00:05:40;99646.16;;;10.09;90.93
36234;BME280;43467;50.890;5.982;2023-11-21T00:08:09;99645.28;;;10.09;90.80
36234;BME280;43467;50.890;5.982;2023-11-21T00:10:34;99645.13;;;10.12;90.72
36234;BME280;43467;50.890;5.982;2023-11-21T00:13:00;99651.25;;;10.12;90.89
36234;BME280;43467;50.890;5.982;2023-11-21T00:15:27;99656.88;;;10.23;90.76
36234;BME280;43467;50.890;5.982;2023-11-21T00:17:52;99659.38;;;10.27;90.08
36234;BME280;43467;50.890;5.982;2023-11-21T00:20:17;99654.06;;;10.27;90.10
36234;BME280;43467;50.890;5.982;2023-11-21T00:22:43;99668.69;;;10.34;90.02
36234;BME280;43467;50.890;5.982;2023-11-21T00:27:43;99663.09;;;10.55;89.46
36234;BME280;43467;50.890;5.982;2023-11-21T00:30:09;99657.78;;;10.55;88.53
36234;BME280;43467;50.890;5.982;2023-11-21T00:32:36;99646.78;;;10.47;89.29
36234;BME280;43467;50.890;5.982;2023-11-21T00:35:02;99659.78;;;10.67;89.02
36234;BME280;43467;50.890;5.982;2023-11-21T00:37:27;99657.94;;;10.68;88.68
36234;BME280;43467;50.890;5.982;2023-11-21T00:39:52;99660.28;;;10.74;88.89
36234;BME280;43467;50.890;5.982;2023-11-21T00:42:18;99664.97;;;10.85;88.29
36234;BME280;43467;50.890;5.982;2023-11-21T00:44:43;99676.34;;;10.87;87.78
36234;BME280;43467;50.890;5.982;2023-11-21T00:47:08;99685.47;;;10.97;87.39
36234;BME280;43467;50.890;5.982;2023-11-21T00:49:34;99681.28;;;10.93;86.96
36234;BME280;43467;50.890;5.982;2023-11-21T00:51:59;99684.47;;;10.99;87.14
36234;BME280;43467;50.890;5.982;2023-11-21T00:54:27;99683.34;;;10.88;87.03
36234;BME280;43467;50.890;5.982;2023-11-21T00:56:52;99680.69;;;10.88;87.17
36234;BME280;43467;50.890;5.982;2023-11-21T00:59:17;99685.41;;;10.83;87.66
36234;BME280;43467;50.890;5.982;2023-11-21T01:01:43;99692.84;;;10.92;87.75
36234;BME280;43467;50.890;5.982;2023-11-21T01:04:09;99696.25;;;10.94;87.56
36234;BME280;43467;50.890;5.982;2023-11-21T01:06:34;99700.44;;;10.98;87.53
36234;BME280;43467;50.890;5.982;2023-11-21T01:09:00;99693.34;;;10.98;87.41
36234;BME280;43467;50.890;5.982;2023-11-21T01:11:25;99693.41;;;10.97;87.22
36234;BME280;43467;50.890;5.982;2023-11-21T01:13:51;99692.22;;;10.87;87.43
36234;BME280;43467;50.890;5.982;2023-11-21T01:16:17;99687.25;;;10.81;87.53
36234;BME280;43467;50.890;5.982;2023-11-21T01:18:43;99698.03;;;10.78;88.05
36234;BME280;43467;50.890;5.982;2023-11-21T01:21:08;99693.16;;;10.86;87.64
36234;BME280;43467;50.890;5.982;2023-11-21T01:23:34;99697.72;;;10.84;87.66
36234;BME280;43467;50.890;5.982;2023-11-21T01:26:00;99695.19;;;10.81;87.71
36234;BME280;43467;50.890;5.982;2023-11-21T01:28:25;99700.66;;;10.78;87.54
36234;BME280;43467;50.890;5.982;2023-11-21T01:30:51;99697.84;;;10.81;87.04
36234;BME280;43467;50.890;5.982;2023-11-21T01:33:17;99707.34;;;10.85;86.90
36234;BME280;43467;50.890;5.982;2023-11-21T01:35:43;99703.00;;;10.84;87.37
36234;BME280;43467;50.890;5.982;2023-11-21T01:38:11;99703.81;;;10.84;87.14
36234;BME280;43467;50.890;5.982;2023-11-21T01:40:36;99704.38;;;10.91;87.09
36234;BME280;43467;50.890;5.982;2023-11-21T01:43:02;99706.75;;;10.95;86.97
36234;BME280;43467;50.890;5.982;2023-11-21T01:45:30;99703.25;;;10.95;86.48
36234;BME280;43467;50.890;5.982;2023-11-21T01:47:59;99706.91;;;10.92;86.46
36234;BME280;43467;50.890;5.982;2023-11-21T01:50:26;99699.25;;;10.88;86.93
36234;BME280;43467;50.890;5.982;2023-11-21T01:52:51;99707.09;;;10.89;87.10
36234;BME280;43467;50.890;5.982;2023-11-21T01:55:18;99702.66;;;10.90;87.25
36234;BME280;43467;50.890;5.982;2023-11-21T01:57:45;99704.38;;;10.91;86.55
36234;BME280;43467;50.890;5.982;2023-11-21T02:00:11;99704.19;;;10.94;87.05
36234;BME280;43467;50.890;5.982;2023-11-21T02:02:45;99708.00;;;10.88;86.75
36234;BME280;43467;50.890;5.982;2023-11-21T02:05:11;99704.53;;;10.88;86.95
36234;BME280;43467;50.890;5.982;2023-11-21T02:07:40;99708.63;;;10.78;86.93
36234;BME280;43467;50.890;5.982;2023-11-21T02:10:07;99710.34;;;10.79;87.25
36234;BME280;43467;50.890;5.982;2023-11-21T02:12:33;99715.69;;;10.77;87.35
36234;BME280;43467;50.890;5.982;2023-11-21T02:15:03;99719.13;;;10.79;87.42
36234;BME280;43467;50.890;5.982;2023-11-21T02:17:42;99717.06;;;10.68;87.32
36234;BME280;43467;50.890;5.982;2023-11-21T02:20:12;99716.13;;;10.69;87.79
36234;BME280;43467;50.890;5.982;2023-11-21T02:22:44;99719.13;;;10.63;87.87
36234;BME280;43467;50.890;5.982;2023-11-21T02:25:10;99723.13;;;10.70;88.30
36234;BME280;43467;50.890;5.982;2023-11-21T02:27:36;99730.97;;;10.72;87.84
36234;BME280;43467;50.890;5.982;2023-11-21T02:30:03;99729.44;;;10.68;87.89
36234;BME280;43467;50.890;5.982;2023-11-21T02:32:29;99735.59;;;10.68;87.68
36234;BME280;43467;50.890;5.982;2023-11-21T02:34:56;99740.75;;;10.71;88.14
36234;BME280;43467;50.890;5.982;2023-11-21T02:37:26;99733.81;;;10.85;87.99
36234;BME280;43467;50.890;5.982;2023-11-21T02:39:51;99737.56;;;10.81;87.69
36234;BME280;43467;50.890;5.982;2023-11-21T02:42:18;99731.53;;;10.79;88.13
36234;BME280;43467;50.890;5.982;2023-11-21T02:44:43;99731.94;;;10.71;87.79
36234;BME280;43467;50.890;5.982;2023-11-21T02:47:08;99726.72;;;10.69;88.20
36234;BME280;43467;50.890;5.982;2023-11-21T02:52:03;99726.13;;;10.80;87.96
36234;BME280;43467;50.890;5.982;2023-11-21T02:54:29;99729.03;;;10.76;87.77
36234;BME280;43467;50.890;5.982;2023-11-21T02:56:54;99732.88;;;10.86;87.53
36234;BME280;43467;50.890;5.982;2023-11-21T02:59:19;99736.81;;;10.94;86.94
36234;BME280;43467;50.890;5.982;2023-11-21T03:01:45;99735.28;;;11.06;86.75
36234;BME280;43467;50.890;5.982;2023-11-21T03:04:11;99741.00;;;11.14;86.14
36234;BME280;43467;50.890;5.982;2023-11-21T03:06:44;99748.47;;;11.23;85.92
36234;BME280;43467;50.890;5.982;2023-11-21T03:09:10;99751.28;;;11.20;85.23
36234;BME280;43467;50.890;5.982;2023-11-21T03:11:37;99760.50;;;11.13;85.71
36234;BME280;43467;50.890;5.982;2023-11-21T03:14:02;99752.53;;;11.13;85.92
36234;BME280;43467;50.890;5.982;2023-11-21T03:16:28;99756.06;;;11.13;85.40
36234;BME280;43467;50.890;5.982;2023-11-21T03:18:54;99754.75;;;11.05;85.67
36234;BME280;43467;50.890;5.982;2023-11-21T03:21:19;99756.06;;;10.98;85.91
36234;BME280;43467;50.890;5.982;2023-11-21T03:23:45;99764.16;;;10.95;86.37
36234;BME280;43467;50.890;5.982;2023-11-21T03:26:13;99765.03;;;10.95;86.45
36234;BME280;43467;50.890;5.982;2023-11-21T03:28:39;99762.53;;;10.92;86.49
36234;BME280;43467;50.890;5.982;2023-11-21T03:31:04;99767.06;;;10.90;86.71
36234;BME280;43467;50.890;5.982;2023-11-21T03:33:31;99768.25;;;10.85;86.92
36234;BME280;43467;50.890;5.982;2023-11-21T03:35:57;99776.03;;;10.88;87.06
36234;BME280;43467;50.890;5.982;2023-11-21T03:38:23;99777.41;;;10.95;87.15
36234;BME280;43467;50.890;5.982;2023-11-21T03:40:48;99783.44;;;10.81;87.01
36234;BME280;43467;50.890;5.982;2023-11-21T03:43:15;99777.84;;;10.87;87.01
36234;BME280;43467;50.890;5.982;2023-11-21T03:45:41;99786.44;;;10.75;87.09
36234;BME280;43467;50.890;5.982;2023-11-21T03:48:07;99780.91;;;10.80;87.63
36234;BME280;43467;50.890;5.982;2023-11-21T03:50:32;99788.53;;;10.68;87.36
36234;BME280;43467;50.890;5.982;2023-11-21T03:52:58;99781.63;;;10.66;87.49
36234;BME280;43467;50.890;5.982;2023-11-21T03:55:24;99785.31;;;10.63;88.35
36234;BME280;43467;50.890;5.982;2023-11-21T03:57:50;99789.34;;;10.70;87.98
36234;BME280;43467;50.890;5.982;2023-11-21T04:02:46;99795.09;;;10.61;88.02
36234;BME280;43467;50.890;5.982;2023-11-21T04:05:11;99787.84;;;10.65;88.30
36234;BME280;43467;50.890;5.982;2023-11-21T04:07:37;99794.34;;;10.59;88.74
36234;BME280;43467;50.890;5.982;2023-11-21T04:10:05;99784.69;;;10.58;88.07
36234;BME280;43467;50.890;5.982;2023-11-21T04:12:32;99802.41;;;10.73;88.43
36234;BME280;43467;50.890;5.982;2023-11-21T04:14:57;99802.47;;;10.72;88.11
36234;BME280;43467;50.890;5.982;2023-11-21T04:17:23;99798.44;;;10.65;88.08
36234;BME280;43467;50.890;5.982;2023-11-21T04:19:49;99798.13;;;10.71;87.67
36234;BME280;43467;50.890;5.982;2023-11-21T04:22:14;99796.81;;;10.62;87.56
36234;BME280;43467;50.890;5.982;2023-11-21T04:24:40;99800.91;;;10.68;87.99
36234;BME280;43467;50.890;5.982;2023-11-21T04:27:06;99801.78;;;10.68;88.31
36234;BME280;43467;50.890;5.982;2023-11-21T04:29:31;99802.81;;;10.66;87.85
36234;BME280;43467;50.890;5.982;2023-11-21T04:31:57;99810.91;;;10.63;88.22
36234;BME280;43467;50.890;5.982;2023-11-21T04:34:22;99808.81;;;10.52;88.52
36234;BME280;43467;50.890;5.982;2023-11-21T04:36:48;99807.25;;;10.48;88.44
36234;BME280;43467;50.890;5.982;2023-11-21T04:39:13;99819.75;;;10.46;88.85
36234;BME280;43467;50.890;5.982;2023-11-21T04:41:38;99814.34;;;10.48;89.05
36234;BME280;43467;50.890;5.982;2023-11-21T04:44:05;99814.75;;;10.40;89.59
36234;BME280;43467;50.890;5.982;2023-11-21T04:46:31;99813.19;;;10.53;89.61
36234;BME280;43467;50.890;5.982;2023-11-21T04:48:57;99812.94;;;10.58;89.10
36234;BME280;43467;50.890;5.982;2023-11-21T04:51:23;99815.81;;;10.53;88.54
36234;BME280;43467;50.890;5.982;2023-11-21T04:53:48;99816.00;;;10.50;88.71
36234;BME280;43467;50.890;5.982;2023-11-21T04:56:14;99817.63;;;10.53;88.85
36234;BME280;43467;50.890;5.982;2023-11-21T04:58:41;99821.13;;;10.36;88.62
36234;BME280;43467;50.890;5.982;2023-11-21T05:01:07;99832.19;;;10.44;89.14
36234;BME280;43467;50.890;5.982;2023-11-21T05:03:33;99826.88;;;10.44;88.58
36234;BME280;43467;50.890;5.982;2023-11-21T05:05:59;99829.13;;;10.52;88.81
36234;BME280;43467;50.890;5.982;2023-11-21T05:08:25;99825.31;;;10.40;88.42
36234;BME280;43467;50.890;5.982;2023-11-21T05:10:51;99827.44;;;10.51;88.55
36234;BME280;43467;50.890;5.982;2023-11-21T05:13:17;99830.84;;;10.53;87.90
36234;BME280;43467;50.890;5.982;2023-11-21T05:15:43;99832.56;;;10.54;87.94
36234;BME280;43467;50.890;5.982;2023-11-21T05:18:09;99831.59;;;10.39;88.57
36234;BME280;43467;50.890;5.982;2023-11-21T05:20:35;99826.81;;;10.29;89.15
36234;BME280;43467;50.890;5.982;2023-11-21T05:23:01;99842.16;;;10.22;89.31
36234;BME280;43467;50.890;5.982;2023-11-21T05:25:27;99854.44;;;10.23;90.04
36234;BME280;43467;50.890;5.982;2023-11-21T05:27:52;99849.00;;;10.26;89.94
36234;BME280;43467;50.890;5.982;2023-11-21T05:30:21;99854.88;;;10.14;89.73
36234;BME280;43467;50.890;5.982;2023-11-21T05:32:46;99857.34;;;10.18;90.28
36234;BME280;43467;50.890;5.982;2023-11-21T05:35:12;99853.28;;;10.29;90.05
36234;BME280;43467;50.890;5.982;2023-11-21T05:37:40;99863.47;;;10.36;89.75
36234;BME280;43467;50.890;5.982;2023-11-21T05:40:07;99871.13;;;10.42;89.11
36234;BME280;43467;50.890;5.982;2023-11-21T05:42:34;99871.59;;;10.50;89.03
36234;BME280;43467;50.890;5.982;2023-11-21T05:44:59;99873.91;;;10.56;88.89
36234;BME280;43467;50.890;5.982;2023-11-21T05:47:34;99879.34;;;10.53;88.59
36234;BME280;43467;50.890;5.982;2023-11-21T05:50:00;99884.03;;;10.65;89.04
36234;BME280;43467;50.890;5.982;2023-11-21T05:52:26;99886.91;;;10.61;88.13
36234;BME280;43467;50.890;5.982;2023-11-21T05:54:51;99889.47;;;10.62;88.07
36234;BME280;43467;50.890;5.982;2023-11-21T05:57:17;99888.78;;;10.59;88.33
36234;BME280;43467;50.890;5.982;2023-11-21T05:59:43;99894.59;;;10.65;88.45
36234;BME280;43467;50.890;5.982;2023-11-21T06:02:08;99895.31;;;10.69;88.18
36234;BME280;43467;50.890;5.982;2023-11-21T06:04:34;99886.44;;;10.70;87.62
36234;BME280;43467;50.890;5.982;2023-11-21T06:06:59;99907.16;;;10.79;87.07
36234;BME280;43467;50.890;5.982;2023-11-21T06:09:26;99912.59;;;10.76;87.84
36234;BME280;43467;50.890;5.982;2023-11-21T06:11:52;99914.47;;;10.74;87.81
36234;BME280;43467;50.890;5.982;2023-11-21T06:14:18;99919.84;;;10.72;87.99
36234;BME280;43467;50.890;5.982;2023-11-21T06:16:43;99925.28;;;10.69;87.75
36234;BME280;43467;50.890;5.982;2023-11-21T06:19:10;99928.81;;;10.70;87.87
36234;BME280;43467;50.890;5.982;2023-11-21T06:21:36;99923.91;;;10.80;88.04
36234;BME280;43467;50.890;5.982;2023-11-21T06:26:31;99930.34;;;10.74;88.09
36234;BME280;43467;50.890;5.982;2023-11-21T06:28:57;99933.94;;;10.73;88.22
36234;BME280;43467;50.890;5.982;2023-11-21T06:31:22;99928.41;;;10.60;88.73
36234;BME280;43467;50.890;5.982;2023-11-21T06:33:48;99939.78;;;10.62;89.25
36234;BME280;43467;50.890;5.982;2023-11-21T06:36:13;99936.91;;;10.67;89.59
36234;BME280;43467;50.890;5.982;2023-11-21T06:38:38;99944.47;;;10.75;89.24
36234;BME280;43467;50.890;5.982;2023-11-21T06:41:04;99939.16;;;10.75;89.09
36234;BME280;43467;50.890;5.982;2023-11-21T06:43:29;99942.72;;;10.73;89.09
36234;BME280;43467;50.890;5.982;2023-11-21T06:45:56;99951.38;;;10.77;89.39
36234;BME280;43467;50.890;5.982;2023-11-21T06:48:22;99953.09;;;10.78;89.42
36234;BME280;43467;50.890;5.982;2023-11-21T06:50:47;99955.72;;;10.61;89.94
36234;BME280;43467;50.890;5.982;2023-11-21T06:53:13;99957.06;;;10.69;90.56
36234;BME280;43467;50.890;5.982;2023-11-21T06:55:38;99960.13;;;10.79;90.04
36234;BME280;43467;50.890;5.982;2023-11-21T06:58:04;99961.44;;;10.70;90.03
36234;BME280;43467;50.890;5.982;2023-11-21T07:00:30;99968.50;;;10.70;90.03
36234;BME280;43467;50.890;5.982;2023-11-21T07:02:56;99971.78;;;10.75;90.26
36234;BME280;43467;50.890;5.982;2023-11-21T07:05:22;99970.94;;;10.75;89.72
36234;BME280;43467;50.890;5.982;2023-11-21T07:07:48;99976.22;;;10.75;90.33
36234;BME280;43467;50.890;5.982;2023-11-21T07:10:14;99984.34;;;10.71;90.58
36234;BME280;43467;50.890;5.982;2023-11-21T07:12:40;99979.41;;;10.64;91.03
36234;BME280;43467;50.890;5.982;2023-11-21T07:15:06;99986.50;;;10.63;91.26
36234;BME280;43467;50.890;5.982;2023-11-21T07:17:35;99987.13;;;10.68;90.94
36234;BME280;43467;50.890;5.982;2023-11-21T07:20:01;99988.91;;;10.68;90.92
36234;BME280;43467;50.890;5.982;2023-11-21T07:22:27;99998.56;;;10.69;91.28
36234;BME280;43467;50.890;5.982;2023-11-21T07:24:52;99997.00;;;10.65;91.10
36234;BME280;43467;50.890;5.982;2023-11-21T07:27:17;100000.03;;;10.57;90.89
36234;BME280;43467;50.890;5.982;2023-11-21T07:29:43;100012.84;;;10.66;91.67
36234;BME280;43467;50.890;5.982;2023-11-21T07:32:09;100002.16;;;10.68;91.58
36234;BME280;43467;50.890;5.982;2023-11-21T07:37:11;100016.31;;;10.50;92.38
36234;BME280;43467;50.890;5.982;2023-11-21T07:39:37;100013.88;;;10.45;92.20
36234;BME280;43467;50.890;5.982;2023-11-21T07:42:07;100014.28;;;10.55;92.67
36234;BME280;43467;50.890;5.982;2023-11-21T07:44:32;100013.50;;;10.53;92.41
36234;BME280;43467;50.890;5.982;2023-11-21T07:46:57;100024.50;;;10.62;91.98
36234;BME280;43467;50.890;5.982;2023-11-21T07:49:24;100025.16;;;10.67;91.99
36234;BME280;43467;50.890;5.982;2023-11-21T07:51:50;100029.47;;;10.68;91.47
36234;BME280;43467;50.890;5.982;2023-11-21T07:54:16;100036.66;;;10.66;91.43
36234;BME280;43467;50.890;5.982;2023-11-21T07:56:41;100043.03;;;10.62;91.34
36234;BME280;43467;50.890;5.982;2023-11-21T07:59:07;100040.66;;;10.56;91.27
36234;BME280;43467;50.890;5.982;2023-11-21T08:01:32;100042.72;;;10.51;91.55
36234;BME280;43467;50.890;5.982;2023-11-21T08:03:58;100049.63;;;10.54;91.95
36234;BME280;43467;50.890;5.982;2023-11-21T08:06:27;100059.84;;;10.61;91.99
36234;BME280;43467;50.890;5.982;2023-11-21T08:08:52;100067.09;;;10.58;91.70
36234;BME280;43467;50.890;5.982;2023-11-21T08:11:17;100069.28;;;10.67;91.54
36234;BME280;43467;50.890;5.982;2023-11-21T08:13:44;100073.56;;;10.69;90.86
36234;BME280;43467;50.890;5.982;2023-11-21T08:16:10;100077.63;;;10.77;90.87
36234;BME280;43467;50.890;5.982;2023-11-21T08:18:35;100079.88;;;10.67;90.23
36234;BME280;43467;50.890;5.982;2023-11-21T08:21:01;100072.53;;;10.55;90.76
36234;BME280;43467;50.890;5.982;2023-11-21T08:23:26;100084.69;;;10.59;91.12
36234;BME280;43467;50.890;5.982;2023-11-21T08:25:52;100084.59;;;10.60;90.60
36234;BME280;43467;50.890;5.982;2023-11-21T08:28:19;100086.09;;;10.66;91.16
36234;BME280;43467;50.890;5.982;2023-11-21T08:30:44;100088.75;;;10.66;91.17
36234;BME280;43467;50.890;5.982;2023-11-21T08:33:10;100092.81;;;10.73;91.26
36234;BME280;43467;50.890;5.982;2023-11-21T08:35:37;100089.78;;;10.81;90.77
36234;BME280;43467;50.890;5.982;2023-11-21T08:38:04;100087.50;;;10.73;90.63
36234;BME280;43467;50.890;5.982;2023-11-21T08:40:29;100089.88;;;10.79;91.27
36234;BME280;43467;50.890;5.982;2023-11-21T08:42:55;100095.66;;;10.87;90.37
36234;BME280;43467;50.890;5.982;2023-11-21T08:45:24;100101.56;;;10.92;90.09
36234;BME280;43467;50.890;5.982;2023-11-21T08:47:51;100084.72;;;10.76;90.23
36234;BME280;43467;50.890;5.982;2023-11-21T08:50:17;100100.81;;;10.90;90.40
36234;BME280;43467;50.890;5.982;2023-11-21T08:52:43;100099.28;;;10.85;89.76
36234;BME280;43467;50.890;5.982;2023-11-21T08:55:09;100072.16;;;10.62;89.32
36234;BME280;43467;50.890;5.982;2023-11-21T08:57:38;100077.84;;;10.72;89.38
36234;BME280;43467;50.890;5.982;2023-11-21T09:00:04;100088.78;;;10.83;89.29
36234;BME280;43467;50.890;5.982;2023-11-21T09:02:35;100093.78;;;10.89;89.09
36234;BME280;43467;50.890;5.982;2023-11-21T09:05:03;100106.53;;;10.81;89.56
36234;BME280;43467;50.890;5.982;2023-11-21T09:07:29;100121.78;;;10.95;89.68
36234;BME280;43467;50.890;5.982;2023-11-21T09:09:54;100081.50;;;10.69;90.11
36234;BME280;43467;50.890;5.982;2023-11-21T09:12:20;100108.91;;;10.87;89.91
36234;BME280;43467;50.890;5.982;2023-11-21T09:14:46;100108.25;;;10.82;88.82
36234;BME280;43467;50.890;5.982;2023-11-21T09:17:12;100133.59;;;10.88;88.92
36234;BME280;43467;50.890;5.982;2023-11-21T09:19:38;100144.09;;;11.08;89.38
36234;BME280;43467;50.890;5.982;2023-11-21T09:22:04;100154.53;;;11.11;88.86
36234;BME280;43467;50.890;5.982;2023-11-21T09:24:31;100149.06;;;11.14;89.18
36234;BME280;43467;50.890;5.982;2023-11-21T09:26:56;100129.56;;;10.98;88.89
36234;BME280;43467;50.890;5.982;2023-11-21T09:29:22;100143.06;;;11.10;89.04
36234;BME280;43467;50.890;5.982;2023-11-21T09:31:48;100120.97;;;10.93;88.98
36234;BME280;43467;50.890;5.982;2023-11-21T09:34:16;100140.59;;;10.89;89.82
36234;BME280;43467;50.890;5.982;2023-11-21T09:36:45;100159.34;;;11.03;90.04
36234;BME280;43467;50.890;5.982;2023-11-21T09:39:10;100159.84;;;10.92;89.55
36234;BME280;43467;50.890;5.982;2023-11-21T09:41:51;100141.44;;;10.89;89.77
36234;BME280;43467;50.890;5.982;2023-11-21T09:44:42;100116.31;;;10.62;90.25
36234;BME280;43467;50.890;5.982;2023-11-21T09:47:10;100128.81;;;10.77;89.86
36234;BME280;43467;50.890;5.982;2023-11-21T09:49:39;100166.16;;;10.90;90.91
36234;BME280;43467;50.890;5.982;2023-11-21T09:52:07;100162.59;;;10.91;90.57
36234;BME280;43467;50.890;5.982;2023-11-21T09:54:35;100147.84;;;10.85;91.03
36234;BME280;43467;50.890;5.982;2023-11-21T09:57:02;100162.81;;;10.86;91.49
36234;BME280;43467;50.890;5.982;2023-11-21T09:59:30;100162.28;;;10.97;91.08
36234;BME280;43467;50.890;5.982;2023-11-21T10:01:57;100153.56;;;10.95;90.92
36234;BME280;43467;50.890;5.982;2023-11-21T10:04:27;100129.13;;;10.71;91.21
36234;BME280;43467;50.890;5.982;2023-11-21T10:06:54;100154.63;;;10.91;90.84
36234;BME280;43467;50.890;5.982;2023-11-21T10:09:20;100182.38;;;11.01;90.65
36234;BME280;43467;50.890;5.982;2023-11-21T10:11:47;100141.06;;;10.80;90.85
36234;BME280;43467;50.890;5.982;2023-11-21T10:14:16;100132.88;;;10.84;90.36
36234;BME280;43467;50.890;5.982;2023-11-21T10:16:44;100125.00;;;10.83;90.54
36234;BME280;43467;50.890;5.982;2023-11-21T10:19:12;100190.00;;;11.26;89.88
36234;BME280;43467;50.890;5.982;2023-11-21T10:21:39;100196.53;;;11.18;89.57
36234;BME280;43467;50.890;5.982;2023-11-21T10:24:05;100167.94;;;11.08;89.81
36234;BME280;43467;50.890;5.982;2023-11-21T10:26:32;100167.72;;;10.94;89.76
36234;BME280;43467;50.890;5.982;2023-11-21T10:28:59;100192.09;;;11.19;89.60
36234;BME280;43467;50.890;5.982;2023-11-21T10:31:28;100176.50;;;11.13;90.45
36234;BME280;43467;50.890;5.982;2023-11-21T10:33:53;100201.69;;;11.22;90.03
36234;BME280;43467;50.890;5.982;2023-11-21T10:36:26;100200.31;;;11.32;90.39
36234;BME280;43467;50.890;5.982;2023-11-21T10:38:55;100182.06;;;11.26;90.18
36234;BME280;43467;50.890;5.982;2023-11-21T10:41:22;100185.66;;;11.42;90.27
36234;BME280;43467;50.890;5.982;2023-11-21T10:43:47;100169.97;;;11.20;89.38
36234;BME280;43467;50.890;5.982;2023-11-21T10:46:14;100196.75;;;11.50;88.83
36234;BME280;43467;50.890;5.982;2023-11-21T10:48:44;100179.19;;;11.47;88.89
36234;BME280;43467;50.890;5.982;2023-11-21T10:51:09;100180.84;;;11.50;89.36
36234;BME280;43467;50.890;5.982;2023-11-21T10:53:41;100174.69;;;11.32;88.95
36234;BME280;43467;50.890;5.982;2023-11-21T10:56:08;100116.75;;;10.89;88.73
36234;BME280;43467;50.890;5.982;2023-11-21T10:58:37;100186.66;;;11.22;89.01
36234;BME280;43467;50.890;5.982;2023-11-21T11:01:06;100194.69;;;11.38;89.17
36234;BME280;43467;50.890;5.982;2023-11-21T11:03:32;100192.75;;;11.41;89.18
36234;BME280;43467;50.890;5.982;2023-11-21T11:06:02;100174.81;;;11.29;89.16
36234;BME280;43467;50.890;5.982;2023-11-21T11:08:28;100201.66;;;11.40;89.04
36234;BME280;43467;50.890;5.982;2023-11-21T11:10:54;100176.13;;;11.21;89.16
36234;BME280;43467;50.890;5.982;2023-11-21T11:13:20;100144.84;;;11.10;88.68
36234;BME280;43467;50.890;5.982;2023-11-21T11:15:50;100179.22;;;11.11;88.92
36234;BME280;43467;50.890;5.982;2023-11-21T11:18:16;100181.94;;;11.10;89.21
36234;BME280;43467;50.890;5.982;2023-11-21T11:20:43;100217.09;;;11.32;89.70
36234;BME280;43467;50.890;5.982;2023-11-21T11:23:38;100214.56;;;11.29;90.01
36234;BME280;43467;50.890;5.982;2023-11-21T11:29:41;100217.16;;;11.31;90.92
36234;BME280;43467;50.890;5.982;2023-11-21T11:35:04;100198.66;;;11.29;91.31
36234;BME280;43467;50.890;5.982;2023-11-21T11:37:31;100212.66;;;11.33;90.89
36234;BME280;43467;50.890;5.982;2023-11-21T11:39:56;100218.50;;;11.39;91.10
36234;BME280;43467;50.890;5.982;2023-11-21T11:42:22;100172.63;;;11.20;91.16
36234;BME280;43467;50.890;5.982;2023-11-21T11:44:50;100185.34;;;11.31;90.92
36234;BME280;43467;50.890;5.982;2023-11-21T11:47:21;100217.50;;;11.59;90.90
36234;BME280;43467;50.890;5.982;2023-11-21T11:52:54;100161.41;;;11.32;89.25
36234;BME280;43467;50.890;5.982;2023-11-21T11:55:24;100176.53;;;11.30;90.15
36234;BME280;43467;50.890;5.982;2023-11-21T11:57:53;100195.28;;;11.44;90.32
36234;BME280;43467;50.890;5.982;2023-11-21T12:03:00;100231.19;;;11.50;90.55
36234;BME280;43467;50.890;5.982;2023-11-21T12:05:29;100231.91;;;11.36;91.19
36234;BME280;43467;50.890;5.982;2023-11-21T12:08:00;100229.63;;;11.29;92.37
36234;BME280;43467;50.890;5.982;2023-11-21T12:10:30;100231.19;;;11.33;91.50
36234;BME280;43467;50.890;5.982;2023-11-21T12:12:58;100218.38;;;11.24;91.68
36234;BME280;43467;50.890;5.982;2023-11-21T12:15:24;100223.31;;;11.31;90.95
36234;BME280;43467;50.890;5.982;2023-11-21T12:17:51;100237.97;;;11.38;90.45
36234;BME280;43467;50.890;5.982;2023-11-21T12:20:22;100185.19;;;10.98;90.29
36234;BME280;43467;50.890;5.982;2023-11-21T12:22:59;100227.16;;;11.07;91.22
36234;BME280;43467;50.890;5.982;2023-11-21T12:25:26;100208.97;;;10.99;92.16
36234;BME280;43467;50.890;5.982;2023-11-21T12:27:58;100215.75;;;11.05;92.45
36234;BME280;43467;50.890;5.982;2023-11-21T12:30:29;100235.38;;;11.19;92.85
36234;BME280;43467;50.890;5.982;2023-11-21T12:33:01;100260.34;;;11.33;92.13
36234;BME280;43467;50.890;5.982;2023-11-21T12:35:29;100262.16;;;11.32;91.18
36234;BME280;43467;50.890;5.982;2023-11-21T12:37:55;100237.16;;;11.19;90.64
36234;BME280;43467;50.890;5.982;2023-11-21T12:40:24;100250.75;;;10.93;93.17
36234;BME280;43467;50.890;5.982;2023-11-21T12:42:58;100222.28;;;10.79;93.04
36234;BME280;43467;50.890;5.982;2023-11-21T12:45:28;100250.56;;;11.16;93.73
36234;BME280;43467;50.890;5.982;2023-11-21T12:50:24;100262.16;;;11.32;92.45
36234;BME280;43467;50.890;5.982;2023-11-21T12:52:54;100225.75;;;11.17;91.79
36234;BME280;43467;50.890;5.982;2023-11-21T12:55:21;100266.91;;;11.43;91.52
36234;BME280;43467;50.890;5.982;2023-11-21T12:57:54;100269.19;;;11.50;91.54
36234;BME280;43467;50.890;5.982;2023-11-21T13:00:27;100273.56;;;11.51;90.53
36234;BME280;43467;50.890;5.982;2023-11-21T13:02:54;100231.69;;;11.22;90.93
36234;BME280;43467;50.890;5.982;2023-11-21T13:05:36;100274.31;;;11.36;91.99
36234;BME280;43467;50.890;5.982;2023-11-21T13:08:07;100265.13;;;11.43;91.76
36234;BME280;43467;50.890;5.982;2023-11-21T13:10:35;100259.41;;;11.34;90.50
36234;BME280;43467;50.890;5.982;2023-11-21T13:13:06;100287.78;;;11.32;91.68
36234;BME280;43467;50.890;5.982;2023-11-21T13:15:34;100266.59;;;11.13;91.53
36234;BME280;43467;50.890;5.982;2023-11-21T13:18:02;100275.63;;;11.28;91.83
36234;BME280;43467;50.890;5.982;2023-11-21T13:20:28;100284.59;;;11.42;91.58